Gosport, Alabama
Current Conditions -  °F | °C
As of 8:53 PM on Thursday 27 Nov 2014 (Local Time) from KGZH Reporting Station
Clear Clear  
Wind Chill: 38°   Ceiling: Unl
Heat Index: 42°   Visibility: 10mi
Dew Point: 31°   Wind: 7mph
Humidity: 65%   Direction: 340°NNW
Pressure: 30.45"   Gusts: NA
Location:  31.6457°N, 87.6115°W
Report Text: KGZH 280253Z AUTO 34006KT 10SM CLR 06/M01 A3045 RMK AO2 SLP312 T00561006 51013
Loading
Personal Weather Stations






























Interactive Weather Map New forecast layout! Learn more

10-Day Weather Forecast

Advertisements
Track Severe Weather on mobile